Time;durP1;ratioP1;P1;durP2;ratioP2;P2;SDS_P1;SDS_P2;PMS_P1;PMS_P2;Temp;Humidity;BMP_temperature;BMP_pressure;BME280_temperature;BME280_humidity;BME280_pressure;Samples;Min_cycle;Max_cycle;Signal;HPM_P1;HPM_P2
2022/04/18 00:02:10;;;;;;;6.47;2.90;;;;;;;1.57;67.90;99442.65;1814765;79;20993;-37
2022/04/18 00:04:39;;;;;;;4.90;2.42;;;;;;;1.57;67.90;99437.30;1814943;79;20989;-38
2022/04/18 00:07:07;;;;;;;4.83;2.12;;;;;;;1.56;67.95;99434.38;1814931;79;21221;-37
2022/04/18 00:09:33;;;;;;;3.33;1.95;;;;;;;1.56;68.05;99437.05;1814872;79;21001;-38
2022/04/18 00:12:02;;;;;;;4.12;2.20;;;;;;;1.55;68.14;99434.16;1814894;79;20900;-37
2022/04/18 00:14:30;;;;;;;3.70;2.00;;;;;;;1.55;68.15;99428.23;1815256;79;20899;-38
2022/04/18 00:16:58;;;;;;;3.30;2.02;;;;;;;1.59;68.26;99428.45;1814955;79;21471;-37
2022/04/18 00:19:27;;;;;;;3.70;1.70;;;;;;;1.62;68.22;99427.31;1814878;79;20977;-37
2022/04/18 00:21:53;;;;;;;3.30;2.05;;;;;;;1.61;68.22;99423.59;1814902;79;21008;-37
2022/04/18 00:24:21;;;;;;;2.77;2.22;;;;;;;1.57;68.49;99423.95;1815006;79;21735;-38
2022/04/18 00:26:49;;;;;;;4.12;1.98;;;;;;;1.57;68.75;99422.61;1814687;79;20982;-37
2022/04/18 00:29:16;;;;;;;5.75;2.40;;;;;;;1.61;68.68;99418.25;1815075;79;20957;-38
2022/04/18 00:31:44;;;;;;;4.62;2.33;;;;;;;1.61;68.57;99423.05;1805871;79;20928;-37
2022/04/18 00:34:14;;;;;;;3.75;2.02;;;;;;;1.61;68.70;99413.70;1800091;79;20928;-38
2022/04/18 00:36:41;;;;;;;4.28;2.00;;;;;;;1.63;68.75;99412.08;1797131;79;21035;-37
2022/04/18 00:39:09;;;;;;;3.55;1.90;;;;;;;1.64;68.79;99409.66;1799967;79;20948;-37
2022/04/18 00:41:38;;;;;;;3.25;2.15;;;;;;;1.64;68.71;99405.64;1800009;79;21477;-37
2022/04/18 00:44:05;;;;;;;2.37;2.08;;;;;;;1.64;68.72;99399.76;1799977;79;21804;-38
2022/04/18 00:46:32;;;;;;;3.90;2.12;;;;;;;1.67;68.85;99398.35;1800071;79;20987;-38
2022/04/18 00:48:59;;;;;;;5.40;2.00;;;;;;;1.71;68.94;99402.00;1800061;79;21018;-38
2022/04/18 00:51:26;;;;;;;4.00;2.22;;;;;;;1.75;68.86;99400.31;1799921;79;21059;-37
2022/04/18 00:53:54;;;;;;;3.17;2.10;;;;;;;1.77;68.72;99399.48;1799944;79;21066;-37
2022/04/18 00:56:22;;;;;;;3.05;2.00;;;;;;;1.80;68.78;99398.86;1800145;79;21216;-37
2022/04/18 00:58:49;;;;;;;3.02;2.12;;;;;;;1.83;68.73;99397.48;1800304;79;21086;-37
2022/04/18 01:01:17;;;;;;;4.67;2.27;;;;;;;1.87;68.74;99395.80;1799960;79;20932;-38
2022/04/18 01:03:45;;;;;;;3.35;1.82;;;;;;;1.90;68.65;99395.97;1800171;79;21070;-37
2022/04/18 01:06:14;;;;;;;2.58;2.05;;;;;;;1.95;68.52;99394.52;1799999;79;21102;-38
2022/04/18 01:08:43;;;;;;;2.75;1.85;;;;;;;1.95;68.43;99391.05;1800413;79;21125;-38
2022/04/18 01:11:10;;;;;;;2.95;1.80;;;;;;;1.95;68.47;99387.05;1800033;79;21071;-38
2022/04/18 01:13:48;;;;;;;2.58;2.00;;;;;;;2.02;68.22;99387.44;1799609;79;21051;-37
2022/04/18 01:16:25;;;;;;;3.58;1.92;;;;;;;2.01;68.14;99383.97;1791355;80;21013;-37
2022/04/18 01:18:56;;;;;;;3.25;2.00;;;;;;;2.03;68.03;99380.43;1730908;82;21443;-37
2022/04/18 01:21:38;;;;;;;3.75;2.00;;;;;;;2.00;67.79;99373.02;1764911;81;21153;-38
2022/04/18 01:28:58;;;;;;;;;;;;;;;1.99;67.76;99370.64;1750450;81;20973;-37
2022/04/18 01:29:37;;;;;;;3.42;2.02;;;;;;;1.80;67.83;99367.33;1699253;84;21060;-37
2022/04/18 01:32:06;;;;;;;2.30;1.70;;;;;;;1.73;67.64;99367.77;1746769;81;21028;-38
2022/04/18 01:34:32;;;;;;;3.05;1.92;;;;;;;1.65;67.86;99356.43;1779198;78;21111;-37
2022/04/18 01:36:59;;;;;;;3.58;2.12;;;;;;;1.64;68.02;99356.21;1820049;78;21513;-38
2022/04/18 01:39:26;;;;;;;7.33;2.62;;;;;;;1.65;68.19;99349.20;1820273;78;21452;-38
2022/04/18 01:41:53;;;;;;;3.58;1.98;;;;;;;1.67;68.17;99346.25;1792366;78;21665;-37
2022/04/18 01:44:21;;;;;;;4.47;1.98;;;;;;;1.64;68.04;99346.86;1820211;78;20985;-37
2022/04/18 01:46:50;;;;;;;2.67;1.87;;;;;;;1.61;68.10;99342.09;1820173;78;21241;-38
2022/04/18 01:49:18;;;;;;;2.60;1.90;;;;;;;1.59;68.26;99346.97;1793112;78;20906;-37
2022/04/18 01:51:45;;;;;;;2.25;1.60;;;;;;;1.59;68.21;99345.09;1820166;78;21001;-37
2022/04/18 01:54:12;;;;;;;3.80;2.02;;;;;;;1.55;68.32;99343.31;1820397;78;21428;-38
2022/04/18 01:56:40;;;;;;;2.50;1.82;;;;;;;1.48;68.40;99338.91;1820362;78;21021;-38
2022/04/18 01:59:07;;;;;;;2.27;1.65;;;;;;;1.48;68.46;99344.26;1820088;78;21045;-37
2022/04/18 02:01:35;;;;;;;3.40;1.90;;;;;;;1.51;68.25;99335.63;1820238;78;21048;-37
2022/04/18 02:04:02;;;;;;;2.00;1.57;;;;;;;1.47;68.24;99334.66;1820157;78;20969;-38
2022/04/18 02:06:30;;;;;;;2.83;1.62;;;;;;;1.45;68.42;99324.83;1820133;78;21443;-37
2022/04/18 02:08:57;;;;;;;2.37;1.67;;;;;;;1.51;68.55;99335.63;1820049;78;21009;-37
2022/04/18 02:11:26;;;;;;;2.00;1.50;;;;;;;1.53;68.34;99335.59;1820224;78;20972;-38
2022/04/18 02:13:53;;;;;;;2.42;1.70;;;;;;;1.53;68.18;99333.47;1820096;78;20901;-38
2022/04/18 02:16:20;;;;;;;2.67;1.90;;;;;;;1.49;68.28;99327.94;1820367;78;20953;-38
2022/04/18 02:18:48;;;;;;;4.72;2.10;;;;;;;1.52;68.21;99323.86;1820196;78;21001;-38
2022/04/18 02:21:16;;;;;;;2.15;1.90;;;;;;;1.49;68.29;99327.14;1820207;78;21440;-37
2022/04/18 02:23:44;;;;;;;3.45;2.10;;;;;;;1.53;68.32;99328.12;1820372;78;20889;-37
2022/04/18 02:26:11;;;;;;;3.10;1.90;;;;;;;1.53;68.26;99315.55;1820008;78;20988;-37
2022/04/18 02:28:40;;;;;;;2.10;1.90;;;;;;;1.58;68.34;99318.12;1820273;78;21495;-38
2022/04/18 02:31:09;;;;;;;3.00;2.00;;;;;;;1.61;68.22;99316.71;1820047;78;20994;-38
2022/04/18 02:33:37;;;;;;;2.27;1.70;;;;;;;1.62;68.22;99316.97;1820608;78;21048;-38
2022/04/18 02:36:04;;;;;;;3.45;1.90;;;;;;;1.64;68.04;99301.43;1820449;78;21193;-37
2022/04/18 02:38:32;;;;;;;2.37;1.82;;;;;;;1.69;68.00;99310.67;1820323;78;20952;-38
2022/04/18 02:40:59;;;;;;;2.52;1.92;;;;;;;1.74;67.98;99299.87;1814272;78;20997;-38
2022/04/18 02:43:26;;;;;;;5.03;2.00;;;;;;;1.77;67.78;99301.13;1820385;78;21579;-37
2022/04/18 02:45:56;;;;;;;3.25;2.08;;;;;;;1.79;67.57;99302.42;1820336;78;21032;-37
2022/04/18 02:48:44;;;;;;;3.12;2.10;;;;;;;1.81;67.63;99301.56;1819630;78;21989;-37
2022/04/18 02:51:14;;;;;;;3.02;2.10;;;;;;;1.82;67.46;99301.81;1820382;78;20962;-38
2022/04/18 02:53:41;;;;;;;2.95;2.10;;;;;;;1.81;67.54;99300.77;1820420;78;21009;-38
2022/04/18 02:56:09;;;;;;;3.83;1.98;;;;;;;1.81;67.39;99294.08;1820502;78;21017;-38
2022/04/18 02:58:38;;;;;;;3.47;2.40;;;;;;;1.74;67.42;99293.19;1820245;78;21021;-37
2022/04/18 03:01:05;;;;;;;5.00;2.00;;;;;;;1.73;67.62;99291.60;1820516;78;22133;-38
2022/04/18 03:03:33;;;;;;;3.17;2.17;;;;;;;1.70;67.81;99290.84;1820409;78;20974;-38
2022/04/18 03:06:02;;;;;;;3.02;2.30;;;;;;;1.69;68.01;99291.97;1820466;78;20999;-38
2022/04/18 03:08:30;;;;;;;3.08;2.00;;;;;;;1.73;68.00;99283.04;1820361;78;20890;-37
2022/04/18 03:11:09;;;;;;;3.50;2.30;;;;;;;1.80;68.01;99283.14;1820465;78;20981;-37
2022/04/18 03:13:44;;;;;;;2.27;1.55;;;;;;;1.85;68.04;99283.02;1820685;78;21231;-38
2022/04/18 03:16:10;;;;;;;3.83;2.10;;;;;;;1.89;68.01;99286.13;1819694;78;20981;-37
2022/04/18 03:18:37;;;;;;;3.00;2.30;;;;;;;1.94;67.96;99286.55;1831096;77;20956;-38
2022/04/18 03:21:05;;;;;;;3.45;1.90;;;;;;;1.94;67.99;99285.20;1834317;78;21015;-38
2022/04/18 03:23:33;;;;;;;3.98;2.05;;;;;;;1.96;68.02;99288.38;1834372;78;21384;-38
2022/04/18 03:26:06;;;;;;;3.20;2.30;;;;;;;1.93;68.06;99289.79;1834281;78;21245;-38
2022/04/18 03:28:37;;;;;;;4.03;2.00;;;;;;;1.90;68.15;99284.23;1833938;78;20987;-37
2022/04/18 03:31:04;;;;;;;3.80;2.50;;;;;;;1.91;68.30;99287.95;1834294;78;21086;-38
2022/04/18 03:33:31;;;;;;;3.65;2.00;;;;;;;1.94;68.37;99275.30;1814432;78;21479;-38
2022/04/18 03:41:30;;;;;;;2.33;1.82;;;;;;;2.04;68.21;99267.04;1813867;79;21640;-37
2022/04/18 03:43:57;;;;;;;4.00;2.55;;;;;;;2.03;68.38;99270.80;1813653;79;21064;-37
2022/04/18 03:46:24;;;;;;;5.08;2.30;;;;;;;2.03;68.55;99270.80;1813767;79;20970;-37
2022/04/18 03:48:51;;;;;;;4.37;2.20;;;;;;;2.05;68.56;99261.15;1813760;79;21071;-37
2022/04/18 03:51:17;;;;;;;3.80;2.12;;;;;;;2.04;68.63;99263.03;1813717;79;21254;-37
2022/04/18 03:53:44;;;;;;;4.92;2.70;;;;;;;2.04;68.65;99261.70;1813826;79;20910;-38
2022/04/18 03:56:12;;;;;;;4.17;2.42;;;;;;;2.05;68.81;99257.93;1813751;79;20982;-37
2022/04/18 03:58:40;;;;;;;4.25;2.30;;;;;;;2.10;68.79;99256.47;1809129;79;21060;-37
2022/04/18 04:01:08;;;;;;;3.42;2.60;;;;;;;2.18;68.84;99250.91;1782287;79;20981;-37
2022/04/18 04:03:35;;;;;;;4.90;2.75;;;;;;;2.24;68.79;99247.02;1813844;79;21216;-38
2022/04/18 04:06:01;;;;;;;6.50;2.60;;;;;;;2.24;68.81;99246.23;1813648;79;21004;-37
2022/04/18 04:08:31;;;;;;;6.30;3.30;;;;;;;2.22;68.86;99246.55;1813803;79;20988;-38
2022/04/18 04:11:00;;;;;;;6.75;4.35;;;;;;;2.18;68.82;99243.69;1813726;79;21447;-37
2022/04/18 04:13:29;;;;;;;4.12;2.80;;;;;;;2.14;68.89;99233.91;1813909;79;20965;-37
2022/04/18 04:16:04;;;;;;;3.27;2.60;;;;;;;2.13;68.81;99235.79;1805380;79;21132;-37
2022/04/18 04:18:33;;;;;;;3.95;2.05;;;;;;;2.17;68.80;99223.41;1813923;79;21526;-38
2022/04/18 04:21:01;;;;;;;3.42;2.77;;;;;;;2.19;68.99;99227.09;1813354;79;20960;-38
2022/04/18 04:23:28;;;;;;;5.40;2.52;;;;;;;2.18;68.88;99223.63;1813797;79;21028;-38
2022/04/18 04:25:57;;;;;;;3.22;2.35;;;;;;;2.19;68.91;99217.73;1811032;79;21041;-38
2022/04/18 04:28:25;;;;;;;3.52;2.40;;;;;;;2.19;68.87;99218.52;1812209;79;21879;-38
2022/04/18 04:30:52;;;;;;;3.95;2.40;;;;;;;2.21;68.89;99210.75;1813495;79;21035;-38
2022/04/18 04:33:21;;;;;;;4.87;2.33;;;;;;;2.27;68.80;99211.66;1813669;78;20952;-38
2022/04/18 04:35:49;;;;;;;4.10;2.92;;;;;;;2.33;68.76;99210.41;1813668;79;21618;-37
2022/04/18 04:38:17;;;;;;;4.10;2.50;;;;;;;2.34;68.61;99205.84;1804476;78;21086;-38
2022/04/18 04:40:48;;;;;;;4.22;2.60;;;;;;;2.35;68.68;99202.87;1802585;78;21127;-38
2022/04/18 04:43:21;;;;;;;4.62;2.52;;;;;;;2.38;68.65;99204.12;1802333;79;21589;-37
2022/04/18 04:45:48;;;;;;;3.80;2.45;;;;;;;2.40;68.55;99203.28;1802591;78;20943;-38
2022/04/18 04:48:29;;;;;;;4.65;2.70;;;;;;;2.44;68.44;99199.67;1801700;79;21028;-37
2022/04/18 04:50:57;;;;;;;6.95;2.50;;;;;;;2.50;68.28;99202.45;1802023;79;21011;-38
2022/04/18 04:53:26;;;;;;;4.20;2.60;;;;;;;2.55;68.37;99197.52;1802791;79;21678;-38
2022/04/18 04:55:55;;;;;;;3.75;1.92;;;;;;;2.59;68.12;99197.12;1802866;79;20924;-38
2022/04/18 04:58:22;;;;;;;4.03;2.60;;;;;;;2.58;68.11;99200.34;1802817;79;20986;-37
2022/04/18 05:00:51;;;;;;;4.65;3.00;;;;;;;2.60;68.20;99194.70;1802198;79;21576;-37
2022/04/18 05:03:36;;;;;;;3.87;2.67;;;;;;;2.60;68.00;99193.36;1802904;79;21568;-38
2022/04/18 05:06:04;;;;;;;5.17;2.58;;;;;;;2.59;67.92;99194.45;1802654;79;21857;-37
2022/04/18 05:08:35;;;;;;;3.77;2.67;;;;;;;2.59;67.95;99190.44;1801417;79;20935;-37
2022/04/18 05:11:02;;;;;;;3.72;2.98;;;;;;;2.55;68.19;99195.63;1802720;79;21611;-38
2022/04/18 05:13:32;;;;;;;5.45;2.80;;;;;;;2.58;68.47;99198.22;1801899;79;21023;-38
2022/04/18 05:15:59;;;;;;;4.08;2.92;;;;;;;2.65;68.53;99199.11;1802899;79;21608;-37
2022/04/18 05:18:30;;;;;;;6.33;3.10;;;;;;;2.68;68.42;99195.26;1801206;79;23118;-37
2022/04/18 05:20:57;;;;;;;6.30;3.00;;;;;;;2.67;68.29;99196.35;1801947;79;21010;-38
2022/04/18 05:23:24;;;;;;;4.62;2.60;;;;;;;2.68;68.32;99193.13;1802917;79;20991;-37
2022/04/18 05:25:54;;;;;;;4.22;2.83;;;;;;;2.70;68.04;99187.72;1802662;79;21008;-38
2022/04/18 05:28:21;;;;;;;4.10;2.65;;;;;;;2.66;68.21;99191.33;1802577;79;21580;-38
2022/04/18 05:30:51;;;;;;;6.47;3.05;;;;;;;2.63;68.37;99190.05;1802238;79;21124;-38
2022/04/18 05:33:21;;;;;;;4.85;2.90;;;;;;;2.61;68.43;99182.90;1820075;78;21467;-38
2022/04/18 05:35:52;;;;;;;3.83;2.75;;;;;;;2.55;68.54;99180.91;1828629;78;21423;-38
2022/04/18 05:38:20;;;;;;;4.22;2.90;;;;;;;2.54;68.78;99189.23;1832175;78;20960;-38
2022/04/18 05:40:49;;;;;;;5.00;2.90;;;;;;;2.61;68.83;99177.55;1831140;78;21051;-38
2022/04/18 05:43:17;;;;;;;3.58;2.95;;;;;;;2.68;68.69;99175.19;1832193;78;21191;-38
2022/04/18 05:45:48;;;;;;;6.22;3.65;;;;;;;2.69;68.65;99176.77;1806155;78;20995;-37
2022/04/18 05:48:13;;;;;;;5.20;3.05;;;;;;;2.67;68.75;99176.28;1832013;78;21020;-38
2022/04/18 05:50:46;;;;;;;5.42;3.35;;;;;;;2.70;68.80;99168.98;1831908;78;20938;-38
2022/04/18 05:53:15;;;;;;;5.70;3.58;;;;;;;2.72;68.85;99180.15;1831050;78;21235;-38
2022/04/18 05:56:00;;;;;;;6.83;3.47;;;;;;;2.76;69.04;99183.77;1806860;78;21915;-37
2022/04/18 05:58:44;;;;;;;4.37;3.40;;;;;;;2.79;68.84;99181.83;1763836;81;21096;-38
2022/04/18 06:01:12;;;;;;;5.03;3.35;;;;;;;2.82;68.85;99175.84;1774463;79;21079;-38
2022/04/18 06:03:40;;;;;;;4.30;3.52;;;;;;;2.84;69.07;99180.34;1771223;79;20993;-38
2022/04/18 06:06:07;;;;;;;6.30;3.83;;;;;;;2.86;68.95;99180.02;1764514;81;21114;-38
2022/04/18 06:08:36;;;;;;;6.12;3.90;;;;;;;2.88;69.00;99173.80;1764493;81;23258;-37
2022/04/18 06:11:04;;;;;;;4.90;3.83;;;;;;;2.91;68.94;99167.27;1763965;81;21048;-38
2022/04/18 06:13:41;;;;;;;6.65;3.80;;;;;;;2.92;68.77;99173.41;1763446;81;21008;-38
2022/04/18 06:16:08;;;;;;;4.58;3.60;;;;;;;2.96;68.89;99171.13;1764480;81;21019;-38
2022/04/18 06:18:35;;;;;;;4.92;3.77;;;;;;;3.08;68.85;99165.72;1764858;81;21478;-37
2022/04/18 06:21:06;;;;;;;7.75;4.53;;;;;;;3.18;68.61;99173.45;1764623;81;21533;-38
2022/04/18 06:23:33;;;;;;;6.03;4.30;;;;;;;3.18;68.43;99165.41;1764591;81;21067;-38
2022/04/18 06:26:17;;;;;;;5.03;4.20;;;;;;;3.17;68.65;99169.19;1762551;81;21495;-38
2022/04/18 06:28:46;;;;;;;6.92;4.37;;;;;;;3.18;68.42;99173.45;1764964;81;21571;-38
2022/04/18 06:31:13;;;;;;;4.75;4.15;;;;;;;3.19;68.42;99173.14;1764675;81;21063;-38
2022/04/18 06:33:42;;;;;;;7.70;4.80;;;;;;;3.21;68.25;99170.13;1760385;81;21136;-38
2022/04/18 06:36:08;;;;;;;17.77;9.40;;;;;;;3.18;68.16;99173.45;1759080;81;21256;-38
2022/04/18 06:38:38;;;;;;;6.78;4.65;;;;;;;2.83;68.17;99117.19;1758720;81;21526;-38
2022/04/18 06:41:08;;;;;;;44.42;23.87;;;;;;;3.27;68.47;99172.34;1759190;81;20984;-38
2022/04/18 06:43:37;;;;;;;25.10;14.13;;;;;;;3.37;68.52;99173.91;1759345;81;21061;-37
2022/04/18 06:46:05;;;;;;;7.83;6.27;;;;;;;3.42;67.94;99175.09;1790233;79;22080;-37
2022/04/18 06:48:33;;;;;;;6.70;5.08;;;;;;;3.41;67.96;99166.81;1759162;81;20985;-38
2022/04/18 06:51:14;;;;;;;7.62;5.05;;;;;;;3.43;68.15;99174.00;1752098;80;21445;-38
2022/04/18 06:53:42;;;;;;;5.72;5.12;;;;;;;3.48;67.97;99168.48;1780390;79;20989;-38
2022/04/18 06:59:21;;;;;;;5.92;4.67;;;;;;;3.61;67.68;99170.19;1758607;81;23139;-38
2022/04/18 07:01:50;;;;;;;8.30;4.70;;;;;;;3.64;67.74;99180.27;1759233;81;21004;-38
2022/04/18 07:04:18;;;;;;;7.22;4.90;;;;;;;3.70;67.69;99180.34;1759243;81;21792;-38
2022/04/18 07:06:45;;;;;;;6.67;4.80;;;;;;;3.74;67.29;99174.57;1758908;81;21591;-38
2022/04/18 07:09:12;;;;;;;6.87;5.00;;;;;;;3.77;66.56;99174.50;1759099;81;20977;-38
2022/04/18 07:11:47;;;;;;;7.17;4.92;;;;;;;3.76;66.35;99171.59;1758842;81;21256;-38
2022/04/18 07:14:15;;;;;;;8.53;5.22;;;;;;;3.76;66.55;99168.35;1759198;81;21592;-38
2022/04/18 07:16:44;;;;;;;7.35;4.87;;;;;;;3.81;66.63;99168.19;1735939;81;20988;-38
2022/04/18 07:19:13;;;;;;;6.65;4.53;;;;;;;3.87;66.38;99162.10;1758991;81;20984;-38
2022/04/18 07:21:41;;;;;;;4.60;4.10;;;;;;;3.98;66.27;99161.97;1759190;81;20968;-37
2022/04/18 07:24:08;;;;;;;5.90;4.65;;;;;;;4.08;65.19;99166.20;1759165;81;21123;-38
2022/04/18 07:26:36;;;;;;;6.53;5.40;;;;;;;4.09;65.15;99170.47;1759066;81;20925;-38
2022/04/18 07:29:04;;;;;;;12.07;6.55;;;;;;;4.08;64.79;99172.91;1759284;81;21056;-38
2022/04/18 07:31:32;;;;;;;7.45;4.87;;;;;;;4.08;64.86;99168.33;1759054;81;21585;-38
2022/04/18 07:34:01;;;;;;;5.67;4.87;;;;;;;4.16;64.44;99161.38;1747354;81;21051;-38
2022/04/18 07:36:30;;;;;;;9.33;5.42;;;;;;;4.21;64.17;99157.17;1800349;79;21220;-38
2022/04/18 07:38:59;;;;;;;7.58;5.28;;;;;;;4.26;64.03;99160.45;1800308;79;20940;-38
2022/04/18 07:41:29;;;;;;;7.28;5.20;;;;;;;4.31;63.93;99162.16;1799875;79;21035;-38
2022/04/18 07:44:01;;;;;;;5.05;4.08;;;;;;;4.34;64.07;99160.19;1800396;79;21027;-38
2022/04/18 07:46:30;;;;;;;6.28;4.40;;;;;;;4.40;63.41;99158.91;1800516;79;21022;-38
2022/04/18 07:48:56;;;;;;;6.95;5.53;;;;;;;4.52;63.07;99156.86;1800626;79;21108;-38
2022/04/18 07:51:39;;;;;;;6.22;5.25;;;;;;;4.63;62.20;99156.17;1800198;79;21012;-38
2022/04/18 07:54:09;;;;;;;13.50;10.08;;;;;;;4.71;61.69;99155.33;1799428;79;21019;-38
2022/04/18 07:56:36;;;;;;;8.67;5.43;;;;;;;4.75;61.05;99144.72;1773649;79;21545;-38
2022/04/18 07:59:03;;;;;;;6.83;4.70;;;;;;;4.76;61.72;99144.39;1800362;79;21047;-38
2022/04/18 08:01:32;;;;;;;5.05;4.08;;;;;;;4.81;61.20;99138.05;1800365;79;21509;-38
2022/04/18 08:04:00;;;;;;;4.92;3.90;;;;;;;4.82;61.07;99139.63;1800164;79;21012;-38
2022/04/18 08:06:31;;;;;;;6.20;4.20;;;;;;;4.84;60.77;99139.31;1800400;79;20928;-38
2022/04/18 08:09:19;;;;;;;5.03;4.10;;;;;;;4.83;60.79;99140.41;1800164;79;21517;-38
2022/04/18 08:11:46;;;;;;;5.22;3.95;;;;;;;4.82;60.37;99136.94;1800336;79;21035;-38
2022/04/18 08:14:14;;;;;;;6.12;4.65;;;;;;;4.77;60.38;99136.58;1800228;79;21186;-38
2022/04/18 08:16:43;;;;;;;5.90;4.55;;;;;;;4.80;60.25;99131.89;1800097;79;21022;-38
2022/04/18 08:19:12;;;;;;;;;;;;;;;4.83;60.75;99129.12;1801819;79;21010;-38
2022/04/18 08:21:41;;;;;;;5.70;4.78;;;;;;;4.85;60.56;99126.88;1800196;79;20141;-38
2022/04/18 08:24:08;;;;;;;8.58;5.72;;;;;;;4.80;61.13;99127.06;1800353;79;21066;-38
2022/04/18 08:26:49;;;;;;;6.28;4.97;;;;;;;4.88;60.80;99124.11;1796199;79;21085;-38
2022/04/18 08:29:18;;;;;;;4.45;3.55;;;;;;;4.89;60.34;99114.36;1799408;79;20944;-38
2022/04/18 08:31:56;;;;;;;4.42;3.30;;;;;;;4.95;59.56;99105.55;1797999;79;21026;-38
2022/04/18 08:34:27;;;;;;;4.22;3.10;;;;;;;5.02;59.45;99103.14;1793168;79;21546;-38
2022/04/18 08:36:54;;;;;;;3.92;2.98;;;;;;;5.09;58.87;99104.72;1773676;80;21889;-38
2022/04/18 08:39:21;;;;;;;2.70;2.25;;;;;;;5.14;58.38;99100.49;1790093;80;23157;-38
2022/04/18 08:41:52;;;;;;;2.85;2.02;;;;;;;5.22;57.83;99113.09;1773662;80;21476;-38
2022/04/18 08:44:20;;;;;;;4.67;2.85;;;;;;;5.31;56.63;99113.01;1790399;80;20963;-38
2022/04/18 08:54:39;;;;;;;2.98;2.50;;;;;;;5.41;56.74;99101.29;1814593;79;22041;-37
2022/04/18 08:57:08;;;;;;;2.85;2.37;;;;;;;5.49;55.31;99099.06;1814308;79;20955;-37
2022/04/18 08:59:35;;;;;;;3.60;2.55;;;;;;;5.52;55.00;99105.11;1814769;79;20974;-37
2022/04/18 09:02:03;;;;;;;2.45;1.77;;;;;;;5.58;55.45;99103.80;1814338;79;21013;-37
2022/04/18 09:04:34;;;;;;;3.47;2.10;;;;;;;5.65;54.21;99104.61;1813936;79;21009;-37
2022/04/18 09:07:12;;;;;;;2.40;2.20;;;;;;;5.65;53.95;99108.08;1814600;79;22017;-37
2022/04/18 09:09:42;;;;;;;2.08;1.87;;;;;;;5.63;53.94;99100.11;1814789;79;21034;-37
2022/04/18 09:12:24;;;;;;;3.45;2.10;;;;;;;5.62;54.19;99092.59;1814061;79;21556;-37
2022/04/18 09:15:11;;;;;;;3.87;2.20;;;;;;;5.63;54.15;99093.37;1813120;79;21406;-38
2022/04/18 09:17:39;;;;;;;2.35;1.90;;;;;;;5.62;54.57;99095.28;1758535;79;21053;-38
2022/04/18 09:20:13;;;;;;;;;;;;;;;5.63;54.20;99100.11;1814871;79;20908;-38
2022/04/18 09:22:44;;;;;;;1.70;1.60;;;;;;;5.62;53.70;99087.22;1814366;79;20078;-38
2022/04/18 09:25:24;;;;;;;1.98;1.70;;;;;;;5.51;53.31;99085.30;1814836;79;21081;-38
2022/04/18 09:27:57;;;;;;;1.52;1.42;;;;;;;5.47;52.98;99079.78;1813934;79;21030;-38
2022/04/18 09:30:31;;;;;;;2.42;1.90;;;;;;;5.37;53.24;99080.23;1813890;78;22036;-38
2022/04/18 09:33:07;;;;;;;2.30;2.00;;;;;;;5.34;53.38;99081.42;1784867;79;21807;-38
2022/04/18 09:35:39;;;;;;;2.52;1.80;;;;;;;5.34;53.75;99079.52;1814370;79;21025;-38
2022/04/18 09:38:08;;;;;;;5.92;2.00;;;;;;;5.35;53.87;99081.10;1814504;79;20956;-38
2022/04/18 09:40:38;;;;;;;2.85;1.90;;;;;;;5.38;54.21;99081.77;1741302;79;21036;-38
2022/04/18 09:43:06;;;;;;;2.45;2.10;;;;;;;5.43;53.23;99077.53;1814479;79;21550;-38
2022/04/18 09:45:34;;;;;;;2.10;1.50;;;;;;;5.49;53.79;99076.77;1814453;79;21122;-38
2022/04/18 09:48:04;;;;;;;2.20;1.90;;;;;;;5.53;53.21;99080.36;1814204;78;20909;-38
2022/04/18 09:53:28;;;;;;;1.98;1.70;;;;;;;5.50;53.34;99079.13;1812821;79;21595;-38
2022/04/18 09:55:55;;;;;;;2.12;1.85;;;;;;;5.49;52.94;99076.21;1813752;79;20993;-38
2022/04/18 09:58:21;;;;;;;2.60;1.95;;;;;;;5.48;53.19;99075.98;1814683;79;21205;-38
2022/04/18 10:00:51;;;;;;;5.62;2.20;;;;;;;5.52;53.36;99074.19;1813599;79;21015;-38
2022/04/18 10:03:20;;;;;;;3.87;2.20;;;;;;;5.53;53.50;99075.77;1813800;79;21550;-38
2022/04/18 10:05:49;;;;;;;2.67;1.98;;;;;;;5.53;53.86;99078.45;1813804;79;20941;-38
2022/04/18 10:08:16;;;;;;;3.42;2.62;;;;;;;5.56;53.03;99079.71;1813458;79;21044;-38
2022/04/18 10:10:43;;;;;;;2.58;2.25;;;;;;;5.56;53.43;99077.02;1781327;79;21237;-38
2022/04/18 10:13:11;;;;;;;3.22;2.60;;;;;;;5.55;53.24;99074.89;1813761;79;20922;-38
2022/04/18 10:15:39;;;;;;;4.37;2.58;;;;;;;5.52;53.35;99075.53;1813894;79;20953;-38
2022/04/18 10:18:10;;;;;;;3.72;2.80;;;;;;;5.51;53.60;99075.33;1813841;79;20955;-38
2022/04/18 10:21:10;;;;;;;4.97;2.75;;;;;;;5.51;53.80;99076.67;1813992;79;21025;-38
2022/04/18 10:24:00;;;;;;;4.30;2.92;;;;;;;5.51;53.60;99068.61;1813874;78;21116;-38
2022/04/18 10:26:55;;;;;;;2.92;2.25;;;;;;;5.49;53.67;99072.73;1814015;79;21510;-38
2022/04/18 10:29:28;;;;;;;3.10;2.25;;;;;;;5.50;53.57;99076.45;1813748;79;20949;-38
2022/04/18 10:31:55;;;;;;;4.53;2.58;;;;;;;5.48;53.38;99073.29;1813839;79;20976;-38
2022/04/18 10:34:24;;;;;;;4.17;2.70;;;;;;;5.49;53.43;99072.18;1814099;79;21495;-39
2022/04/18 10:36:52;;;;;;;3.00;2.10;;;;;;;5.49;53.34;99068.70;1813801;79;21857;-39
2022/04/18 10:39:19;;;;;;;3.00;2.30;;;;;;;5.51;53.13;99072.64;1814129;79;20972;-39
2022/04/18 10:41:49;;;;;;;3.33;2.50;;;;;;;5.55;53.16;99076.23;1813779;79;21005;-39
2022/04/18 10:44:20;;;;;;;3.27;2.20;;;;;;;5.58;52.79;99077.45;1814382;79;21554;-39
2022/04/18 10:46:55;;;;;;;2.47;2.08;;;;;;;5.59;52.04;99076.34;1813654;79;20945;-39
2022/04/18 10:49:24;;;;;;;3.17;2.12;;;;;;;5.58;52.22;99072.08;1831370;78;21790;-39
2022/04/18 10:51:53;;;;;;;;;;;;;;;5.60;52.79;99065.82;1837139;78;20991;-39
2022/04/18 10:54:23;;;;;;;2.60;2.20;;;;;;;5.63;52.84;99072.66;1834645;78;20204;-39
2022/04/18 10:56:57;;;;;;;2.77;2.15;;;;;;;5.58;52.90;99071.52;1834400;78;21023;-39
2022/04/18 10:59:29;;;;;;;3.33;2.40;;;;;;;5.63;52.69;99078.03;1834281;78;21562;-39
2022/04/18 11:01:58;;;;;;;2.98;2.27;;;;;;;5.68;52.31;99075.69;1834320;78;21217;-39
2022/04/18 11:04:42;;;;;;;2.92;2.50;;;;;;;5.74;52.32;99070.88;1834383;78;20908;-39
2022/04/18 11:07:10;;;;;;;5.10;2.77;;;;;;;5.77;52.22;99079.06;1834449;78;20909;-39
2022/04/18 11:09:41;;;;;;;4.53;3.00;;;;;;;5.81;52.63;99073.23;1834359;78;21514;-39
2022/04/18 11:12:14;;;;;;;3.87;2.98;;;;;;;5.88;52.74;99066.00;1805516;78;21540;-39
2022/04/18 11:14:48;;;;;;;3.52;2.40;;;;;;;5.92;52.93;99066.34;1806780;78;21232;-39
2022/04/18 11:17:41;;;;;;;4.42;2.37;;;;;;;5.99;52.69;99071.17;1834351;78;21042;-39
2022/04/18 11:20:35;;;;;;;4.37;2.50;;;;;;;6.08;52.34;99067.81;1834387;78;20944;-39
2022/04/18 11:23:27;;;;;;;3.58;2.50;;;;;;;6.18;52.13;99061.98;1834368;78;21010;-39
2022/04/18 11:26:03;;;;;;;3.95;2.65;;;;;;;6.28;52.38;99066.91;1834292;78;20963;-39
2022/04/18 11:28:43;;;;;;;3.17;2.50;;;;;;;6.33;51.75;99058.61;1834397;78;21867;-39
2022/04/18 11:31:17;;;;;;;4.85;2.87;;;;;;;6.35;51.73;99063.07;1833243;78;21023;-39
2022/04/18 11:33:44;;;;;;;4.17;2.87;;;;;;;6.37;52.03;99061.40;1834588;78;21493;-39
2022/04/18 11:36:13;;;;;;;4.20;2.90;;;;;;;6.42;51.33;99059.27;1834432;78;20961;-39
2022/04/18 11:38:42;;;;;;;5.40;2.90;;;;;;;6.43;51.53;99057.36;1834441;78;21604;-39
2022/04/18 11:41:12;;;;;;;4.15;2.98;;;;;;;6.38;50.93;99054.34;1834844;78;21040;-39
2022/04/18 11:43:40;;;;;;;3.15;2.50;;;;;;;6.33;51.21;99053.78;1834313;78;20877;-39
2022/04/18 11:46:09;;;;;;;4.55;2.35;;;;;;;6.29;50.88;99056.93;1834265;78;21573;-39
2022/04/18 11:48:36;;;;;;;5.05;2.95;;;;;;;6.23;50.94;99056.37;1834558;78;21032;-37
2022/04/18 11:51:03;;;;;;;2.42;2.22;;;;;;;6.21;51.25;99053.77;1834291;78;21494;-36
2022/04/18 11:53:34;;;;;;;2.83;2.10;;;;;;;6.21;51.46;99047.83;1834240;78;23170;-36
2022/04/18 11:56:04;;;;;;;3.15;2.40;;;;;;;6.24;50.79;99050.42;1834261;78;20999;-36
2022/04/18 11:58:44;;;;;;;2.30;2.10;;;;;;;6.20;50.92;99047.60;1834321;78;20948;-37
2022/04/18 12:06:45;;;;;;;3.47;1.80;;;;;;;6.11;51.08;99046.38;1834219;78;21817;-36
2022/04/18 12:09:15;;;;;;;2.83;1.82;;;;;;;6.15;50.86;99041.09;1834253;78;20955;-36
2022/04/18 12:11:42;;;;;;;;;;;;;;;6.17;50.51;99035.39;1837075;78;20992;-36
2022/04/18 12:14:10;;;;;;;4.08;1.70;;;;;;;6.20;50.31;99029.32;1834339;78;20502;-36
2022/04/18 12:16:38;;;;;;;2.35;1.57;;;;;;;6.18;50.26;99029.67;1834339;78;20976;-36
2022/04/18 12:19:06;;;;;;;1.73;1.63;;;;;;;6.28;50.42;99027.88;1834875;78;21512;-36
2022/04/18 12:21:34;;;;;;;2.83;1.82;;;;;;;6.38;50.65;99031.45;1834163;78;20912;-36
2022/04/18 12:24:03;;;;;;;3.17;1.80;;;;;;;6.47;49.41;99024.59;1834455;78;21015;-36
2022/04/18 12:26:35;;;;;;;2.92;1.60;;;;;;;6.47;50.08;99030.76;1834478;78;21201;-37